Robersonville, North Carolina
Current Conditions -  °F | °C
As of 1:55 PM on Sunday 23 Nov 2014 (Local Time) from KPGV Reporting Station
Light Rain Light Rain  
Wind Chill: 61°   Ceiling: Unl
Heat Index: 61°   Visibility: 10mi
Dew Point: 54°   Wind: 3mph
Humidity: 77%   Direction: 120°ESE
Pressure: 30.12"   Gusts: NA
Location:  35.83°N, 77.25°W
Report Text: KPGV 231855Z AUTO 12003KT 10SM -RA SCT009 SCT030 SCT042 16/12 A3012 RMK AO2
Loading
Personal Weather Stations






























Interactive Weather Map New forecast layout! Learn more

10-Day Weather Forecast

Advertisements
Track Severe Weather on mobile